createdAt,value
2023-03-12T00:01:18.741Z,15.15
2023-03-12T00:02:50.538Z,15.02
2023-03-12T00:04:22.201Z,14.50
2023-03-12T00:05:53.821Z,14.23
2023-03-12T00:07:25.456Z,14.43
2023-03-12T00:08:57.564Z,15.23
2023-03-12T00:10:30.118Z,14.43
2023-03-12T00:12:01.697Z,14.82
2023-03-12T00:13:33.371Z,13.85
2023-03-12T00:15:07.900Z,15.93
2023-03-12T00:16:39.550Z,13.95
2023-03-12T00:18:11.195Z,14.10
2023-03-12T00:19:42.769Z,13.57
2023-03-12T00:21:14.426Z,14.88
2023-03-12T00:22:46.098Z,15.43
2023-03-12T00:24:17.770Z,14.32
2023-03-12T00:25:49.428Z,15.90
2023-03-12T00:27:21.104Z,13.65
2023-03-12T00:28:52.790Z,13.85
2023-03-12T00:30:28.328Z,14.40
2023-03-12T00:31:59.986Z,14.85
2023-03-12T00:33:31.632Z,14.10
2023-03-12T00:35:03.905Z,13.57
2023-03-12T00:36:35.566Z,13.07
2023-03-12T00:38:07.183Z,13.07
2023-03-12T00:39:38.797Z,13.02
2023-03-12T00:41:10.532Z,13.18
2023-03-12T00:42:42.243Z,14.32
2023-03-12T00:44:13.851Z,14.35
2023-03-12T00:45:46.859Z,13.98
2023-03-12T00:47:18.583Z,12.95
2023-03-12T00:48:50.212Z,12.98
2023-03-12T00:50:21.861Z,13.38
2023-03-12T00:51:54.164Z,12.15
2023-03-12T00:53:25.852Z,12.55
2023-03-12T00:54:58.953Z,12.73
2023-03-12T00:56:30.673Z,12.27
2023-03-12T00:58:02.322Z,12.52
2023-03-12T00:59:34.041Z,12.73
2023-03-12T01:01:07.164Z,12.00
2023-03-12T01:02:39.009Z,12.82
2023-03-12T01:04:10.733Z,12.90
2023-03-12T01:05:42.402Z,12.25
2023-03-12T01:07:14.055Z,12.40
2023-03-12T01:08:45.729Z,11.88
2023-03-12T01:10:18.902Z,11.77
2023-03-12T01:11:50.547Z,12.45
2023-03-12T01:13:22.153Z,12.90
2023-03-12T01:14:53.916Z,12.88
2023-03-12T01:16:28.408Z,12.30
2023-03-12T01:18:00.114Z,13.15
2023-03-12T01:19:31.919Z,13.82
2023-03-12T01:21:04.146Z,12.75
2023-03-12T01:22:36.397Z,12.02
2023-03-12T01:24:08.347Z,11.30
2023-03-12T01:25:40.948Z,11.75
2023-03-12T01:27:12.600Z,11.93
2023-03-12T01:28:44.410Z,12.27
2023-03-12T01:30:16.272Z,10.52
2023-03-12T01:31:49.363Z,11.05
2023-03-12T01:33:22.819Z,10.75
2023-03-12T01:34:54.571Z,10.80
2023-03-12T01:36:27.274Z,11.43
2023-03-12T01:37:58.893Z,11.88
2023-03-12T01:39:30.676Z,10.93
2023-03-12T01:41:02.339Z,11.80
2023-03-12T01:42:34.005Z,11.93
2023-03-12T01:44:06.119Z,11.98
2023-03-12T01:46:04.830Z,12.23
2023-03-12T01:47:37.802Z,12.27
2023-03-12T01:49:10.240Z,12.95
2023-03-12T01:50:41.879Z,12.23
2023-03-12T01:52:14.203Z,10.85
2023-03-12T01:53:47.329Z,11.60
2023-03-12T01:55:19.032Z,11.85
2023-03-12T01:56:50.696Z,11.15
2023-03-12T01:58:22.288Z,11.82
2023-03-12T01:59:56.067Z,12.07
2023-03-12T02:01:27.894Z,11.23
2023-03-12T02:03:03.639Z,11.35
2023-03-12T02:04:35.512Z,10.43
2023-03-12T02:06:08.330Z,9.90
2023-03-12T02:07:40.018Z,10.15
2023-03-12T02:09:12.735Z,9.73
2023-03-12T02:10:44.465Z,8.77
2023-03-12T02:12:16.127Z,8.00
2023-03-12T02:13:47.757Z,7.90
2023-03-12T02:15:19.399Z,8.10
2023-03-12T02:16:51.121Z,7.40
2023-03-12T02:18:24.118Z,7.80
2023-03-12T02:20:00.152Z,7.22
2023-03-12T02:21:33.764Z,7.50
2023-03-12T02:23:07.187Z,7.45
2023-03-12T02:24:41.094Z,7.57
2023-03-12T02:26:14.087Z,7.63
2023-03-12T02:27:45.669Z,7.00
2023-03-12T02:29:17.349Z,8.02
2023-03-12T02:30:50.329Z,7.82
2023-03-12T02:32:24.553Z,7.82
2023-03-12T02:33:56.276Z,7.60
2023-03-12T02:35:27.956Z,7.72
2023-03-12T02:36:59.617Z,6.97
2023-03-12T02:38:37.542Z,6.95
2023-03-12T02:40:13.348Z,7.65
2023-03-12T02:41:48.272Z,6.75
2023-03-12T02:43:20.959Z,5.93
2023-03-12T02:44:52.604Z,6.57
2023-03-12T02:46:24.309Z,6.38
2023-03-12T02:47:56.018Z,6.22
2023-03-12T02:49:29.146Z,7.10
2023-03-12T02:51:00.928Z,6.40
2023-03-12T02:52:35.613Z,6.13
2023-03-12T02:54:07.374Z,6.55
2023-03-12T02:55:39.037Z,6.00
2023-03-12T02:57:12.069Z,5.45
2023-03-12T02:58:44.730Z,6.40
2023-03-12T03:00:17.522Z,6.35
2023-03-12T03:01:52.587Z,6.47
2023-03-12T03:03:24.240Z,6.32
2023-03-12T03:04:55.854Z,5.85
2023-03-12T03:06:27.582Z,5.82
2023-03-12T03:07:59.236Z,6.00
2023-03-12T03:09:30.830Z,6.15
2023-03-12T03:11:03.613Z,6.75
2023-03-12T03:12:36.777Z,5.90
2023-03-12T03:14:08.473Z,6.10
2023-03-12T03:15:40.673Z,6.15
2023-03-12T03:17:12.279Z,6.72
2023-03-12T03:18:43.985Z,6.57
2023-03-12T03:20:16.017Z,6.50
2023-03-12T03:21:47.643Z,6.53
2023-03-12T03:23:19.288Z,6.05
2023-03-12T03:24:50.914Z,6.40
2023-03-12T03:26:22.867Z,6.05
2023-03-12T03:27:55.887Z,5.85
2023-03-12T03:29:27.541Z,6.50
2023-03-12T03:31:01.397Z,6.10
2023-03-12T03:32:33.158Z,6.40
2023-03-12T03:34:04.838Z,6.45
2023-03-12T03:35:36.523Z,6.32
2023-03-12T03:37:08.145Z,5.32
2023-03-12T03:38:39.792Z,5.95
2023-03-12T03:40:12.485Z,5.90
2023-03-12T03:41:45.772Z,6.28
2023-03-12T03:43:18.728Z,5.70
2023-03-12T03:44:50.301Z,5.72
2023-03-12T03:46:22.014Z,6.10
2023-03-12T03:47:54.628Z,5.90
2023-03-12T03:49:26.293Z,5.53
2023-03-12T03:51:00.010Z,5.25
2023-03-12T03:52:31.992Z,5.25
2023-03-12T03:54:03.687Z,5.18
2023-03-12T03:55:36.485Z,5.30
2023-03-12T03:57:08.171Z,4.93
2023-03-12T03:58:41.173Z,5.45
2023-03-12T04:00:14.333Z,4.95
2023-03-12T04:01:45.914Z,5.50
2023-03-12T04:03:17.660Z,5.68
2023-03-12T04:04:49.351Z,5.30
2023-03-12T04:06:21.037Z,5.88
2023-03-12T04:07:52.899Z,5.93
2023-03-12T04:09:24.493Z,5.70
2023-03-12T04:10:56.100Z,5.80
2023-03-12T04:12:28.070Z,6.40
2023-03-12T04:14:11.934Z,6.25
2023-03-12T04:15:46.890Z,6.57
2023-03-12T04:17:18.504Z,6.18
2023-03-12T04:18:50.145Z,6.28
2023-03-12T04:20:21.786Z,5.75
2023-03-12T04:21:53.425Z,5.20
2023-03-12T04:23:25.075Z,5.68
2023-03-12T04:24:57.017Z,6.45
2023-03-12T04:26:28.665Z,7.13
2023-03-12T04:28:01.266Z,5.88
2023-03-12T04:29:34.245Z,5.47
2023-03-12T04:31:06.916Z,6.28
2023-03-12T04:32:38.654Z,6.53
2023-03-12T04:34:12.571Z,6.22
2023-03-12T04:35:50.185Z,6.90
2023-03-12T04:37:22.070Z,7.05
2023-03-12T04:38:54.350Z,7.10
2023-03-12T04:40:25.984Z,6.57
2023-03-12T04:41:57.644Z,6.35
2023-03-12T04:43:29.358Z,6.05
2023-03-12T04:45:02.328Z,6.53
2023-03-12T04:46:33.993Z,6.43
2023-03-12T04:48:05.701Z,6.30
2023-03-12T04:49:38.202Z,6.05
2023-03-12T04:51:09.818Z,7.20
2023-03-12T04:52:41.457Z,6.45
2023-03-12T04:54:13.184Z,7.03
2023-03-12T04:55:44.785Z,6.03
2023-03-12T04:57:16.414Z,6.00
2023-03-12T04:58:48.011Z,6.32
2023-03-12T05:00:22.143Z,6.18
2023-03-12T05:01:53.774Z,6.70
2023-03-12T05:03:25.414Z,6.18
2023-03-12T05:04:57.581Z,5.93
2023-03-12T05:06:29.334Z,6.50
2023-03-12T05:08:01.009Z,7.00
2023-03-12T05:09:32.733Z,6.32
2023-03-12T05:11:04.753Z,5.82
2023-03-12T05:12:36.377Z,6.57
2023-03-12T05:14:08.804Z,6.63
2023-03-12T05:15:41.914Z,6.65
2023-03-12T05:17:13.686Z,6.18
2023-03-12T05:18:45.424Z,6.57
2023-03-12T05:20:19.873Z,6.20
2023-03-12T05:21:51.490Z,6.15
2023-03-12T05:23:23.084Z,5.65
2023-03-12T05:24:54.760Z,6.45
2023-03-12T05:26:28.003Z,6.35
2023-03-12T05:27:59.592Z,6.18
2023-03-12T05:29:35.342Z,5.80
2023-03-12T05:31:09.435Z,5.55
2023-03-12T05:32:41.100Z,5.68
2023-03-12T05:34:12.864Z,6.07
2023-03-12T05:35:44.517Z,5.60
2023-03-12T05:37:16.158Z,6.78
2023-03-12T05:38:47.751Z,5.55
2023-03-12T05:40:19.426Z,5.47
2023-03-12T05:41:51.079Z,5.75
2023-03-12T05:43:22.820Z,4.78
2023-03-12T05:44:54.440Z,5.95
2023-03-12T05:46:27.656Z,6.15
2023-03-12T05:47:59.284Z,6.25
2023-03-12T05:49:31.257Z,6.63
2023-03-12T05:51:02.941Z,5.80
2023-03-12T05:52:34.580Z,7.90
2023-03-12T05:54:06.580Z,6.38
2023-03-12T05:55:38.782Z,6.18
2023-03-12T05:57:10.342Z,5.47
2023-03-12T05:58:42.050Z,6.50
2023-03-12T06:00:14.574Z,5.07
2023-03-12T06:01:47.708Z,5.70
2023-03-12T06:03:23.772Z,5.53
2023-03-12T06:04:56.945Z,5.05
2023-03-12T06:06:30.175Z,5.35
2023-03-12T06:08:01.820Z,5.38
2023-03-12T06:09:36.911Z,5.85
2023-03-12T06:11:08.555Z,5.72
2023-03-12T06:12:40.253Z,4.88
2023-03-12T06:14:11.852Z,4.80
2023-03-12T06:15:43.562Z,5.60
2023-03-12T06:17:16.895Z,5.72
2023-03-12T06:18:48.699Z,5.47
2023-03-12T06:20:20.601Z,8.63
2023-03-12T06:21:52.204Z,8.32
2023-03-12T06:23:24.364Z,6.45
2023-03-12T06:24:55.967Z,6.32
2023-03-12T06:26:28.084Z,6.25
2023-03-12T06:27:59.689Z,6.55
2023-03-12T06:29:31.277Z,8.93
2023-03-12T06:31:02.981Z,8.00
2023-03-12T06:32:36.057Z,7.57
2023-03-12T06:34:08.267Z,8.75
2023-03-12T06:35:39.859Z,7.57
2023-03-12T06:37:11.793Z,7.95
2023-03-12T06:38:43.590Z,6.45
2023-03-12T06:40:15.296Z,6.82
2023-03-12T06:41:46.904Z,6.85
2023-03-12T06:43:18.621Z,6.80
2023-03-12T06:44:50.398Z,7.38
2023-03-12T06:46:22.255Z,6.07
2023-03-12T06:47:55.270Z,7.88
2023-03-12T06:49:32.040Z,8.15
2023-03-12T06:51:03.892Z,6.95
2023-03-12T06:52:35.590Z,8.40
2023-03-12T06:54:07.177Z,7.68
2023-03-12T06:55:38.945Z,7.60
2023-03-12T06:57:10.592Z,7.82
2023-03-12T06:58:42.261Z,8.15
2023-03-12T07:00:14.490Z,6.50
2023-03-12T07:01:46.182Z,6.57
2023-03-12T07:03:19.144Z,6.35
2023-03-12T07:04:50.768Z,7.95
2023-03-12T07:06:23.270Z,7.20
2023-03-12T07:07:54.869Z,8.25
2023-03-12T07:09:26.486Z,7.85
2023-03-12T07:11:01.100Z,9.55
2023-03-12T07:12:33.064Z,8.60
2023-03-12T07:14:04.718Z,9.45
2023-03-12T07:15:36.350Z,9.98
2023-03-12T07:17:07.948Z,8.82
2023-03-12T07:18:40.973Z,8.70
2023-03-12T07:20:13.255Z,7.70
2023-03-12T07:21:44.831Z,7.20
2023-03-12T07:23:16.622Z,9.25
2023-03-12T07:24:48.179Z,9.05
2023-03-12T07:26:20.251Z,7.93
2023-03-12T07:27:51.820Z,7.68
2023-03-12T07:29:23.517Z,8.68
2023-03-12T07:31:00.377Z,9.07
2023-03-12T07:32:33.533Z,8.38
2023-03-12T07:34:06.835Z,10.32
2023-03-12T07:35:39.248Z,9.30
2023-03-12T07:37:11.044Z,11.43
2023-03-12T07:38:42.690Z,11.75
2023-03-12T07:40:14.345Z,11.10
2023-03-12T07:41:46.045Z,9.48
2023-03-12T07:43:20.269Z,10.63
2023-03-12T07:44:52.088Z,9.98
2023-03-12T07:46:23.747Z,10.55
2023-03-12T07:47:55.491Z,10.15
2023-03-12T07:49:28.466Z,11.07
2023-03-12T07:51:00.132Z,10.60
2023-03-12T07:52:31.872Z,9.10
2023-03-12T07:54:03.626Z,9.40
2023-03-12T07:55:35.300Z,8.90
2023-03-12T07:57:07.105Z,10.05
2023-03-12T07:58:39.273Z,9.57
2023-03-12T08:00:12.394Z,10.35
2023-03-12T08:01:45.421Z,8.90
2023-03-12T08:03:18.282Z,8.90
2023-03-12T08:04:51.630Z,8.90
2023-03-12T08:06:23.271Z,9.35
2023-03-12T08:07:54.977Z,8.68
2023-03-12T08:09:26.567Z,9.27
2023-03-12T08:11:00.121Z,8.80
2023-03-12T08:12:31.707Z,9.73
2023-03-12T08:14:03.448Z,9.65
2023-03-12T08:15:35.105Z,9.68
2023-03-12T08:17:06.704Z,9.35
2023-03-12T08:18:38.443Z,7.85
2023-03-12T08:20:13.219Z,8.68
2023-03-12T08:21:45.220Z,9.30
2023-03-12T08:23:16.857Z,8.88
2023-03-12T08:24:48.888Z,8.30
2023-03-12T08:26:20.541Z,7.60
2023-03-12T08:27:52.219Z,9.02
2023-03-12T08:29:23.859Z,7.30
2023-03-12T08:30:56.077Z,8.77
2023-03-12T08:32:27.794Z,9.07
2023-03-12T08:33:59.416Z,8.73
2023-03-12T08:35:32.450Z,8.27
2023-03-12T08:37:04.265Z,9.13
2023-03-12T08:38:35.905Z,8.95
2023-03-12T08:40:13.289Z,9.32
2023-03-12T08:41:44.992Z,8.45
2023-03-12T08:43:16.615Z,10.13
2023-03-12T08:44:48.240Z,8.18
2023-03-12T08:46:19.971Z,9.70
2023-03-12T08:47:51.578Z,8.25
2023-03-12T08:49:23.266Z,9.75
2023-03-12T08:50:56.906Z,10.02
2023-03-12T08:52:28.506Z,8.10
2023-03-12T08:54:00.127Z,9.30
2023-03-12T08:55:31.719Z,9.45
2023-03-12T08:57:03.798Z,9.60
2023-03-12T08:58:35.612Z,10.55
2023-03-12T09:00:11.891Z,9.25
2023-03-12T09:01:44.011Z,10.85
2023-03-12T09:03:15.687Z,10.02
2023-03-12T09:04:47.895Z,9.07
2023-03-12T09:06:20.998Z,8.68
2023-03-12T09:07:52.616Z,8.23
2023-03-12T09:09:24.479Z,8.00
2023-03-12T09:10:56.125Z,8.60
2023-03-12T09:12:27.783Z,8.27
2023-03-12T09:14:33.494Z,8.02
2023-03-12T09:15:51.256Z,8.02
2023-03-12T09:17:22.843Z,7.88
2023-03-12T09:18:54.649Z,7.90
2023-03-12T09:20:26.443Z,8.30
2023-03-12T09:21:59.463Z,7.78
2023-03-12T09:23:31.213Z,7.97
2023-03-12T09:25:02.871Z,8.50
2023-03-12T09:26:34.585Z,25.90
2023-03-12T09:28:06.203Z,10.35
2023-03-12T09:29:46.533Z,6.93
2023-03-12T09:31:25.030Z,10.48
2023-03-12T09:32:56.985Z,13.25
2023-03-12T09:34:28.668Z,8.57
2023-03-12T09:36:00.627Z,11.05
2023-03-12T09:37:33.794Z,6.82
2023-03-12T09:39:05.931Z,7.25
2023-03-12T09:40:38.426Z,8.93
2023-03-12T09:42:23.254Z,7.30
2023-03-12T09:43:56.656Z,7.20
2023-03-12T09:45:29.766Z,6.25
2023-03-12T09:47:02.654Z,6.85
2023-03-12T09:48:35.263Z,7.85
2023-03-12T09:50:15.527Z,7.82
2023-03-12T09:51:49.347Z,8.07
2023-03-12T09:53:26.153Z,8.57
2023-03-12T09:55:01.273Z,7.78
2023-03-12T09:56:32.872Z,7.63
2023-03-12T09:58:04.565Z,6.47
2023-03-12T09:59:37.003Z,7.70
2023-03-12T10:01:13.588Z,7.43
2023-03-12T10:02:53.740Z,6.20
2023-03-12T10:04:52.562Z,6.30
2023-03-12T10:06:32.867Z,7.38
2023-03-12T10:08:23.167Z,6.10
2023-03-12T10:10:18.703Z,7.07
2023-03-12T10:11:52.885Z,6.93
2023-03-12T10:13:57.852Z,6.20
2023-03-12T10:15:35.114Z,5.45
2023-03-12T10:17:16.542Z,6.63
2023-03-12T10:18:58.403Z,6.03
2023-03-12T10:20:46.213Z,6.63
2023-03-12T10:22:22.413Z,6.10
2023-03-12T10:24:02.657Z,6.03
2023-03-12T10:25:37.974Z,6.18
2023-03-12T10:27:11.244Z,6.22
2023-03-12T10:28:43.863Z,8.00
2023-03-12T10:30:17.915Z,6.32
2023-03-12T10:31:52.765Z,6.35
2023-03-12T10:33:28.266Z,6.35
2023-03-12T10:35:00.337Z,11.55
2023-03-12T10:36:35.836Z,9.60
2023-03-12T10:38:10.962Z,6.80
2023-03-12T10:39:45.449Z,6.55
2023-03-12T10:41:20.473Z,6.20
2023-03-12T10:42:52.110Z,8.38
2023-03-12T10:44:24.635Z,7.18
2023-03-12T10:45:59.390Z,6.97
2023-03-12T10:47:37.173Z,8.50
2023-03-12T10:49:23.724Z,6.82
2023-03-12T10:51:06.110Z,6.32
2023-03-12T10:52:37.724Z,6.72
2023-03-12T10:54:20.760Z,6.85
2023-03-12T10:56:00.032Z,6.43
2023-03-12T10:57:40.769Z,7.55
2023-03-12T10:59:20.725Z,6.00
2023-03-12T11:00:56.870Z,5.95
2023-03-12T11:02:33.754Z,7.28
2023-03-12T11:04:09.296Z,6.60
2023-03-12T11:05:48.618Z,10.88
2023-03-12T11:07:23.068Z,8.77
2023-03-12T11:09:17.153Z,9.20
2023-03-12T11:10:49.192Z,10.35
2023-03-12T11:12:25.329Z,10.45
2023-03-12T11:14:06.513Z,8.90
2023-03-12T11:15:39.317Z,7.38
2023-03-12T11:17:20.194Z,9.93
2023-03-12T11:18:56.886Z,8.82
2023-03-12T11:20:28.999Z,7.03
2023-03-12T11:22:01.465Z,8.80
2023-03-12T11:23:33.689Z,7.53
2023-03-12T11:25:06.646Z,8.18
2023-03-12T11:26:44.510Z,7.93
2023-03-12T11:28:20.186Z,7.57
2023-03-12T11:29:56.028Z,6.70
2023-03-12T11:31:29.225Z,7.20
2023-03-12T11:33:05.472Z,8.57
2023-03-12T11:34:37.831Z,8.02
2023-03-12T11:36:28.839Z,9.85
2023-03-12T11:38:06.306Z,9.30
2023-03-12T11:39:50.184Z,12.93
2023-03-12T11:41:31.636Z,13.55
2023-03-12T11:43:12.383Z,13.23
2023-03-12T11:44:55.183Z,11.70
2023-03-12T11:46:33.961Z,12.30
2023-03-12T11:48:10.947Z,11.57
2023-03-12T11:49:54.570Z,9.52
2023-03-12T11:51:31.896Z,9.88
2023-03-12T11:53:14.009Z,11.35
2023-03-12T11:55:24.468Z,8.50
2023-03-12T11:56:56.782Z,8.52
2023-03-12T11:58:39.122Z,7.63
2023-03-12T12:00:14.116Z,7.40
2023-03-12T12:01:55.570Z,7.03
2023-03-12T12:03:36.353Z,7.13
2023-03-12T12:05:32.063Z,7.30
2023-03-12T12:07:08.441Z,6.70
2023-03-12T12:08:54.539Z,9.18
2023-03-12T12:10:28.873Z,10.80
2023-03-12T12:12:09.680Z,8.75
2023-03-12T12:13:47.314Z,10.65
2023-03-12T12:15:24.078Z,9.70
2023-03-12T12:17:13.438Z,9.10
2023-03-12T12:18:52.305Z,10.07
2023-03-12T12:20:37.784Z,8.95
2023-03-12T12:22:20.588Z,8.70
2023-03-12T12:23:54.801Z,9.82
2023-03-12T12:25:48.419Z,8.57
2023-03-12T12:27:23.431Z,8.88
2023-03-12T12:31:07.012Z,8.75
2023-03-12T12:32:52.044Z,7.13
2023-03-12T12:34:41.960Z,9.63
2023-03-12T12:36:13.804Z,9.10
2023-03-12T12:37:54.253Z,7.32
2023-03-12T12:39:31.508Z,7.88
2023-03-12T12:41:12.489Z,8.73
2023-03-12T12:42:54.753Z,7.35
2023-03-12T12:44:31.141Z,8.75
2023-03-12T12:46:05.233Z,7.97
2023-03-12T12:47:41.033Z,7.50
2023-03-12T12:49:18.588Z,9.25
2023-03-12T12:50:50.378Z,8.00
2023-03-12T12:52:22.113Z,7.43
2023-03-12T12:53:55.507Z,7.43
2023-03-12T12:55:28.410Z,7.90
2023-03-12T12:57:05.252Z,6.05
2023-03-12T12:58:45.644Z,5.30
2023-03-12T13:00:24.468Z,4.70
2023-03-12T13:02:02.818Z,5.13
2023-03-12T13:03:37.136Z,5.63
2023-03-12T13:05:20.829Z,3.92
2023-03-12T13:06:57.098Z,4.07
2023-03-12T13:08:33.285Z,4.68
2023-03-12T13:10:07.572Z,4.90
2023-03-12T13:11:43.738Z,3.67
2023-03-12T13:13:29.432Z,3.08
2023-03-12T13:15:01.493Z,3.10
2023-03-12T13:16:34.134Z,3.40
2023-03-12T13:18:08.546Z,3.50
2023-03-12T13:19:44.958Z,2.83
2023-03-12T13:21:24.502Z,2.75
2023-03-12T13:23:01.370Z,2.38
2023-03-12T13:24:33.769Z,2.13
2023-03-12T13:26:07.778Z,2.20
2023-03-12T13:27:40.022Z,2.42
2023-03-12T13:29:21.719Z,2.40
2023-03-12T13:30:53.694Z,1.95
2023-03-12T13:32:53.861Z,1.83
2023-03-12T13:34:52.693Z,2.20
2023-03-12T13:38:34.856Z,2.45
2023-03-12T13:40:33.530Z,2.25
2023-03-12T13:42:26.670Z,1.95
2023-03-12T13:43:58.554Z,2.00
2023-03-12T13:45:31.916Z,2.00
2023-03-12T13:47:04.378Z,2.03
2023-03-12T13:48:35.994Z,2.00
2023-03-12T13:50:08.414Z,1.90
2023-03-12T13:51:55.585Z,2.10
2023-03-12T13:53:27.722Z,2.20
2023-03-12T13:55:01.007Z,2.13
2023-03-12T13:56:32.812Z,2.13
2023-03-12T13:58:07.754Z,1.88
2023-03-12T13:59:43.860Z,1.90
2023-03-12T14:01:17.565Z,2.10
2023-03-12T14:02:50.041Z,1.98
2023-03-12T14:04:22.764Z,1.83
2023-03-12T14:05:55.279Z,1.67
2023-03-12T14:07:44.407Z,1.75
2023-03-12T14:09:19.165Z,1.85
2023-03-12T14:11:00.616Z,1.80
2023-03-12T14:12:34.761Z,1.77
2023-03-12T14:14:41.277Z,1.60
2023-03-12T14:16:16.878Z,1.50
2023-03-12T14:17:54.541Z,1.80
2023-03-12T14:19:27.066Z,1.80
2023-03-12T14:20:59.486Z,1.70
2023-03-12T14:22:33.695Z,1.40
2023-03-12T14:24:07.816Z,1.38
2023-03-12T14:25:44.631Z,1.50
2023-03-12T14:27:22.171Z,1.38
2023-03-12T14:29:06.725Z,1.38
2023-03-12T14:30:44.605Z,1.40
2023-03-12T14:32:28.754Z,1.20
2023-03-12T14:34:16.078Z,1.30
2023-03-12T14:36:28.747Z,1.30
2023-03-12T14:38:09.149Z,1.33
2023-03-12T14:39:45.278Z,1.50
2023-03-12T14:41:21.124Z,1.50
2023-03-12T14:42:52.813Z,1.50
2023-03-12T14:44:25.854Z,1.70
2023-03-12T14:45:58.284Z,1.33
2023-03-12T14:47:30.163Z,1.80
2023-03-12T14:49:02.012Z,1.92
2023-03-12T14:50:37.655Z,1.50
2023-03-12T14:52:11.259Z,1.70
2023-03-12T14:53:47.030Z,1.92
2023-03-12T14:55:20.097Z,1.80
2023-03-12T14:56:51.803Z,1.70
2023-03-12T14:58:23.706Z,1.70
2023-03-12T14:59:58.443Z,1.60
2023-03-12T15:01:48.160Z,1.60
2023-03-12T15:03:19.804Z,1.85
2023-03-12T15:04:55.253Z,1.65
2023-03-12T15:06:30.794Z,1.65
2023-03-12T15:08:03.195Z,1.75
2023-03-12T15:09:36.370Z,1.77
2023-03-12T15:11:08.225Z,1.95
2023-03-12T15:12:40.192Z,1.80
2023-03-12T15:14:14.389Z,1.80
2023-03-12T15:15:47.253Z,1.90
2023-03-12T15:17:19.743Z,1.73
2023-03-12T15:18:51.402Z,1.85
2023-03-12T15:20:23.000Z,1.70
2023-03-12T15:21:54.658Z,1.80
2023-03-12T15:23:26.436Z,1.90
2023-03-12T15:25:03.404Z,2.00
2023-03-12T15:26:38.035Z,1.83
2023-03-12T15:28:25.225Z,2.00
2023-03-12T15:29:57.557Z,1.98
2023-03-12T15:31:41.350Z,1.67
2023-03-12T15:33:22.031Z,1.73
2023-03-12T15:34:54.281Z,1.95
2023-03-12T15:36:27.300Z,1.80
2023-03-12T15:37:58.933Z,1.80
2023-03-12T15:39:31.560Z,2.08
2023-03-12T15:41:06.857Z,1.88
2023-03-12T15:42:40.350Z,1.85
2023-03-12T15:44:19.643Z,2.05
2023-03-12T15:45:56.928Z,1.70
2023-03-12T15:47:29.593Z,1.77
2023-03-12T15:49:01.245Z,1.80
2023-03-12T15:50:34.889Z,1.60
2023-03-12T15:52:07.563Z,2.00
2023-03-12T15:53:39.216Z,2.05
2023-03-12T15:55:22.549Z,1.80
2023-03-12T15:56:57.372Z,2.00
2023-03-12T15:58:31.574Z,2.10
2023-03-12T16:00:16.304Z,1.80
2023-03-12T16:01:48.509Z,1.90
2023-03-12T16:03:20.507Z,2.03
2023-03-12T16:04:52.150Z,2.13
2023-03-12T16:06:26.289Z,2.10
2023-03-12T16:07:58.907Z,1.92
2023-03-12T16:09:30.670Z,1.77
2023-03-12T16:11:12.699Z,1.75
2023-03-12T16:12:45.732Z,2.00
2023-03-12T16:14:18.822Z,1.98
2023-03-12T16:15:53.330Z,1.60
2023-03-12T16:18:23.035Z,1.60
2023-03-12T16:19:30.300Z,1.83
2023-03-12T16:21:01.982Z,1.80
2023-03-12T16:22:33.718Z,2.13
2023-03-12T16:24:05.647Z,1.80
2023-03-12T16:25:37.507Z,2.00
2023-03-12T16:27:13.999Z,2.35
2023-03-12T16:28:47.156Z,2.00
2023-03-12T16:30:20.804Z,2.08
2023-03-12T16:31:54.429Z,1.70
2023-03-12T16:33:26.283Z,2.00
2023-03-12T16:34:58.169Z,2.40
2023-03-12T16:36:29.870Z,2.35
2023-03-12T16:38:01.572Z,2.40
2023-03-12T16:39:33.411Z,1.98
2023-03-12T16:41:05.042Z,1.92
2023-03-12T16:42:36.687Z,2.28
2023-03-12T16:44:13.646Z,2.10
2023-03-12T16:45:46.803Z,2.10
2023-03-12T16:47:18.523Z,2.30
2023-03-12T16:48:50.828Z,2.50
2023-03-12T16:50:22.792Z,4.00
2023-03-12T16:51:54.518Z,2.50
2023-03-12T16:53:26.338Z,2.38
2023-03-12T16:54:58.267Z,2.35
2023-03-12T16:56:29.912Z,2.35
2023-03-12T16:58:01.567Z,2.90
2023-03-12T16:59:38.034Z,3.20
2023-03-12T17:01:11.934Z,3.20
2023-03-12T17:02:43.567Z,3.20
2023-03-12T17:04:15.219Z,2.50
2023-03-12T17:05:46.990Z,2.30
2023-03-12T17:07:18.699Z,2.20
2023-03-12T17:08:50.300Z,2.50
2023-03-12T17:10:22.313Z,2.10
2023-03-12T17:11:53.918Z,2.00
2023-03-12T17:13:26.367Z,2.50
2023-03-12T17:14:59.572Z,2.13
2023-03-12T17:16:31.323Z,2.40
2023-03-12T17:18:04.435Z,2.30
2023-03-12T17:19:36.087Z,2.13
2023-03-12T17:21:09.852Z,2.30
2023-03-12T17:22:41.579Z,2.60
2023-03-12T17:24:16.869Z,2.28
2023-03-12T17:25:48.486Z,2.40
2023-03-12T17:27:20.137Z,2.00
2023-03-12T17:28:51.742Z,2.13
2023-03-12T17:30:24.773Z,1.70
2023-03-12T17:31:56.419Z,2.47
2023-03-12T17:33:29.733Z,2.08
2023-03-12T17:35:06.800Z,2.33
2023-03-12T17:36:50.561Z,2.35
2023-03-12T17:38:22.318Z,2.30
2023-03-12T17:39:53.964Z,2.50
2023-03-12T17:41:28.833Z,2.35
2023-03-12T17:43:01.687Z,2.10
2023-03-12T17:44:34.664Z,2.60
2023-03-12T17:46:07.917Z,2.13
2023-03-12T17:47:39.665Z,2.00
2023-03-12T17:49:11.272Z,2.10
2023-03-12T17:50:42.990Z,1.95
2023-03-12T17:52:17.323Z,1.90
2023-03-12T17:53:51.638Z,1.70
2023-03-12T17:55:23.226Z,1.90
2023-03-12T17:58:08.919Z,2.40
2023-03-12T17:59:23.477Z,3.00
2023-03-12T18:00:55.177Z,4.57
2023-03-12T18:03:11.976Z,4.70
2023-03-12T18:04:46.955Z,3.70
2023-03-12T18:06:19.859Z,3.67
2023-03-12T18:07:51.907Z,3.88
2023-03-12T18:09:23.536Z,3.70
2023-03-12T18:10:55.220Z,3.70
2023-03-12T18:12:26.892Z,3.45
2023-03-12T18:13:58.524Z,3.35
2023-03-12T18:15:32.624Z,3.50
2023-03-12T18:17:04.366Z,4.28
2023-03-12T18:18:37.448Z,6.30
2023-03-12T18:20:36.270Z,5.60
2023-03-12T18:22:14.044Z,6.03
2023-03-12T18:23:46.271Z,8.05
2023-03-12T18:25:17.970Z,10.10
2023-03-12T18:26:51.623Z,7.78
2023-03-12T18:28:24.251Z,10.90
2023-03-12T18:29:55.874Z,11.77
2023-03-12T18:31:29.631Z,11.57
2023-03-12T18:33:03.631Z,11.75
2023-03-12T18:34:37.649Z,10.88
2023-03-12T18:36:09.504Z,10.30
2023-03-12T18:37:41.762Z,8.57
2023-03-12T18:39:13.454Z,8.38
2023-03-12T18:40:45.112Z,8.32
2023-03-12T18:42:17.978Z,7.93
2023-03-12T18:43:49.572Z,7.30
2023-03-12T18:45:23.994Z,7.03
2023-03-12T18:47:24.657Z,5.30
2023-03-12T18:48:56.543Z,5.10
2023-03-12T18:50:35.377Z,5.10
2023-03-12T18:52:09.862Z,4.40
2023-03-12T18:53:43.925Z,4.40
2023-03-12T18:55:15.808Z,4.38
2023-03-12T18:56:47.882Z,5.40
2023-03-12T18:58:19.684Z,4.22
2023-03-12T18:59:51.327Z,3.33
2023-03-12T19:01:22.964Z,3.10
2023-03-12T19:02:54.656Z,2.60
2023-03-12T19:04:26.495Z,2.30
2023-03-12T19:06:03.424Z,2.28
2023-03-12T19:07:37.128Z,2.05
2023-03-12T19:09:10.240Z,2.30
2023-03-12T19:10:42.661Z,2.50
2023-03-12T19:12:14.359Z,2.10
2023-03-12T19:13:49.420Z,2.00
2023-03-12T19:15:21.435Z,2.20
2023-03-12T19:16:53.061Z,2.10
2023-03-12T19:18:24.778Z,1.83
2023-03-12T19:19:56.464Z,2.00
2023-03-12T19:21:29.465Z,1.92
2023-03-12T19:23:01.126Z,2.03
2023-03-12T19:24:32.882Z,1.90
2023-03-12T19:26:05.062Z,2.03
2023-03-12T19:27:36.741Z,2.10
2023-03-12T19:29:08.345Z,2.03
2023-03-12T19:30:40.078Z,1.90
2023-03-12T19:32:11.785Z,1.90
2023-03-12T19:33:43.937Z,2.10
2023-03-12T19:35:15.680Z,2.10
2023-03-12T19:36:48.630Z,2.22
2023-03-12T19:38:20.296Z,2.25
2023-03-12T19:39:52.051Z,2.45
2023-03-12T19:41:23.635Z,2.00
2023-03-12T19:42:55.260Z,2.70
2023-03-12T19:44:26.903Z,2.20
2023-03-12T19:45:58.559Z,2.28
2023-03-12T19:47:33.101Z,2.33
2023-03-12T19:49:04.750Z,2.30
2023-03-12T19:50:36.350Z,2.58
2023-03-12T19:52:10.461Z,2.80
2023-03-12T19:53:42.146Z,3.00
2023-03-12T19:55:13.976Z,2.90
2023-03-12T19:56:45.792Z,2.72
2023-03-12T19:58:17.508Z,2.63
2023-03-12T19:59:49.083Z,2.50
2023-03-12T20:01:21.350Z,2.60
2023-03-12T20:02:53.170Z,2.30
2023-03-12T20:04:24.891Z,2.70
2023-03-12T20:05:56.504Z,2.33
2023-03-12T20:07:29.490Z,2.58
2023-03-12T20:09:01.229Z,2.30
2023-03-12T20:10:32.881Z,2.50
2023-03-12T20:12:05.107Z,2.72
2023-03-12T20:13:38.729Z,2.80
2023-03-12T20:15:11.881Z,2.50
2023-03-12T20:16:46.458Z,2.22
2023-03-12T20:18:18.183Z,2.30
2023-03-12T20:19:49.798Z,2.38
2023-03-12T20:21:24.080Z,2.53
2023-03-12T20:22:57.277Z,2.30
2023-03-12T20:24:31.627Z,2.60
2023-03-12T20:26:03.370Z,2.60
2023-03-12T20:27:35.122Z,2.38
2023-03-12T20:29:06.781Z,2.75
2023-03-12T20:30:41.581Z,2.90
2023-03-12T20:32:15.951Z,2.80
2023-03-12T20:33:49.878Z,2.80
2023-03-12T20:36:11.523Z,2.72
2023-03-12T20:37:48.129Z,2.40
2023-03-12T20:39:54.610Z,2.67
2023-03-12T20:41:26.381Z,2.80
2023-03-12T20:43:02.534Z,2.72
2023-03-12T20:44:34.537Z,2.60
2023-03-12T20:46:08.884Z,2.80
2023-03-12T20:47:40.624Z,2.92
2023-03-12T20:49:14.700Z,2.92
2023-03-12T20:53:06.880Z,2.58
2023-03-12T20:54:39.963Z,2.80
2023-03-12T20:56:12.082Z,2.72
2023-03-12T20:57:48.318Z,3.03